Time;durP1;ratioP1;P1;durP2;ratioP2;P2;SDS_P1;SDS_P2;PMS_P1;PMS_P2;Temp;Humidity;BMP_temperature;BMP_pressure;BME280_temperature;BME280_humidity;BME280_pressure;Samples;Min_cycle;Max_cycle;Signal;HPM_P1;HPM_P2
2022/03/25 00:00:44;;;;;;;25.50;24.47;;;20.20;47.50;;;;;;5073907;28;20442;-58
2022/03/25 00:03:11;;;;;;;26.67;25.47;;;20.10;47.50;;;;;;5073370;28;20475;-58
2022/03/25 00:05:37;;;;;;;26.67;25.47;;;20.10;47.50;;;;;;5072880;28;20933;-57
2022/03/25 00:08:05;;;;;;;26.20;25.10;;;20.10;47.60;;;;;;5073610;28;20439;-60
2022/03/25 00:10:34;;;;;;;26.00;24.90;;;20.10;47.70;;;;;;5073387;28;20482;-59
2022/03/25 00:13:00;;;;;;;26.67;25.57;;;20.10;47.70;;;;;;5073483;28;20872;-59
2022/03/25 00:15:27;;;;;;;26.07;24.87;;;20.10;47.60;;;;;;5073558;28;20451;-59
2022/03/25 00:17:54;;;;;;;25.60;24.50;;;20.10;47.50;;;;;;5073438;28;20445;-59
2022/03/25 00:20:21;;;;;;;25.40;24.30;;;20.10;47.50;;;;;;5073446;28;20447;-58
2022/03/25 00:22:47;;;;;;;25.90;24.80;;;20.10;47.50;;;;;;5073435;28;20459;-58
2022/03/25 00:25:14;;;;;;;26.83;25.60;;;20.00;47.40;;;;;;5073237;28;20447;-59
2022/03/25 00:27:43;;;;;;;27.37;26.17;;;20.00;47.40;;;;;;5073255;28;20944;-58
2022/03/25 00:30:10;;;;;;;26.03;24.83;;;20.00;47.40;;;;;;5072900;28;20999;-58
2022/03/25 00:32:37;;;;;;;26.93;25.70;;;20.00;47.50;;;;;;5073228;28;20459;-58
2022/03/25 00:35:05;;;;;;;27.67;26.37;;;19.90;47.40;;;;;;5073275;28;20463;-58
2022/03/25 00:37:32;;;;;;;26.87;25.57;;;19.90;47.50;;;;;;5073055;28;20501;-59
2022/03/25 00:39:58;;;;;;;26.63;25.43;;;19.90;47.50;;;;;;5073187;28;20620;-57
2022/03/25 00:42:27;;;;;;;27.03;25.80;;;19.90;47.60;;;;;;5072872;28;20467;-59
2022/03/25 00:44:55;;;;;;;27.13;25.80;;;19.80;47.60;;;;;;5072938;28;20448;-59
2022/03/25 00:47:23;;;;;;;28.30;27.00;;;19.80;47.60;;;;;;5072949;28;20883;-59
2022/03/25 00:49:50;;;;;;;26.33;25.00;;;19.80;47.70;;;;;;5072841;28;20451;-58
2022/03/25 00:52:17;;;;;;;27.23;26.03;;;19.80;47.60;;;;;;5072652;28;20467;-56
2022/03/25 00:54:44;;;;;;;26.93;25.73;;;19.80;47.70;;;;;;5072955;28;20451;-58
2022/03/25 00:57:11;;;;;;;26.93;25.63;;;19.80;47.60;;;;;;5072712;28;20443;-60
2022/03/25 00:59:38;;;;;;;26.80;25.50;;;19.80;47.60;;;;;;5072642;28;20447;-59
2022/03/25 01:02:06;;;;;;;27.30;26.00;;;19.70;47.60;;;;;;5072311;28;20468;-59
2022/03/25 01:04:33;;;;;;;27.90;26.63;;;19.70;47.60;;;;;;5072608;28;20803;-57
2022/03/25 01:07:00;;;;;;;27.13;25.83;;;19.70;47.70;;;;;;5072592;28;20439;-57
2022/03/25 01:09:27;;;;;;;27.90;26.50;;;19.70;47.70;;;;;;5072127;28;20481;-57
2022/03/25 01:11:54;;;;;;;25.80;24.63;;;19.70;47.70;;;;;;5072457;28;20845;-58
2022/03/25 01:14:21;;;;;;;26.20;25.00;;;19.70;47.70;;;;;;5072464;28;20444;-58
2022/03/25 01:16:48;;;;;;;27.20;26.07;;;19.70;47.70;;;;;;5072206;28;20447;-59
2022/03/25 01:19:16;;;;;;;27.17;25.97;;;19.60;47.70;;;;;;5071657;28;20448;-58
2022/03/25 01:21:43;;;;;;;26.13;25.03;;;19.60;47.80;;;;;;5072095;28;20440;-58
2022/03/25 01:24:09;;;;;;;25.70;24.60;;;19.60;47.90;;;;;;5072283;28;20439;-58
2022/03/25 01:26:36;;;;;;;26.00;24.80;;;19.60;47.90;;;;;;5072177;28;20533;-58
2022/03/25 01:29:04;;;;;;;26.17;24.97;;;19.60;47.90;;;;;;5071357;28;20523;-57
2022/03/25 01:31:32;;;;;;;27.10;25.83;;;19.60;47.90;;;;;;5071705;28;20511;-59
2022/03/25 01:33:59;;;;;;;26.93;25.73;;;19.60;47.90;;;;;;5071768;28;20937;-60
2022/03/25 01:36:27;;;;;;;26.47;25.30;;;19.60;47.90;;;;;;5072072;28;20447;-57
2022/03/25 01:38:54;;;;;;;26.00;24.90;;;19.60;47.90;;;;;;5071565;28;20443;-58
2022/03/25 01:41:20;;;;;;;25.67;24.53;;;19.60;48.00;;;;;;5072004;28;20439;-59
2022/03/25 01:43:53;;;;;;;26.30;25.20;;;19.60;48.00;;;;;;5071991;28;20881;-57
2022/03/25 01:46:20;;;;;;;25.77;24.63;;;19.60;48.00;;;;;;5072065;28;20941;-57
2022/03/25 01:48:47;;;;;;;26.17;25.00;;;19.60;48.00;;;;;;5071459;28;20936;-57
2022/03/25 01:51:16;;;;;;;27.03;25.73;;;19.60;48.00;;;;;;5071590;28;20472;-57
2022/03/25 01:53:44;;;;;;;28.67;27.37;;;19.60;48.00;;;;;;5071893;28;20459;-60
2022/03/25 01:56:12;;;;;;;27.53;26.37;;;19.60;48.00;;;;;;5071746;28;20450;-59
2022/03/25 01:58:41;;;;;;;26.87;25.77;;;19.60;48.00;;;;;;5071328;28;20451;-60
2022/03/25 02:01:08;;;;;;;27.00;25.80;;;19.50;48.00;;;;;;5071684;28;20436;-60
2022/03/25 02:03:35;;;;;;;26.20;25.00;;;19.50;48.00;;;;;;5072187;28;20475;-60
2022/03/25 02:06:03;;;;;;;26.03;24.73;;;19.50;48.00;;;;;;5071732;28;20443;-58
2022/03/25 02:08:30;;;;;;;26.63;25.43;;;19.50;48.10;;;;;;5070917;28;20490;-60
2022/03/25 02:10:58;;;;;;;27.00;25.80;;;19.50;48.10;;;;;;5071563;28;20483;-56
2022/03/25 02:13:26;;;;;;;28.67;27.37;;;19.40;48.10;;;;;;5071430;28;20464;-59
2022/03/25 02:15:53;;;;;;;27.10;25.80;;;19.40;48.10;;;;;;5071543;28;20455;-58
2022/03/25 02:18:20;;;;;;;27.63;26.37;;;19.40;48.10;;;;;;5071504;28;20570;-62
2022/03/25 02:20:49;;;;;;;27.60;26.13;;;19.40;48.10;;;;;;5071313;28;20471;-61
2022/03/25 02:23:17;;;;;;;26.87;25.63;;;19.40;48.00;;;;;;5071533;28;20478;-61
2022/03/25 02:25:44;;;;;;;26.93;25.73;;;19.30;48.00;;;;;;5071349;28;20439;-61
2022/03/25 02:28:12;;;;;;;27.20;25.93;;;19.30;48.00;;;;;;5073383;28;20505;-59
2022/03/25 02:30:39;;;;;;;26.40;25.30;;;19.30;48.00;;;;;;5075578;28;20490;-58
2022/03/25 02:33:08;;;;;;;27.50;26.20;;;19.30;48.10;;;;;;5075647;28;20463;-59
2022/03/25 02:35:39;;;;;;;27.60;26.30;;;19.30;48.00;;;;;;5075606;28;20466;-57
2022/03/25 02:38:07;;;;;;;27.00;25.80;;;19.30;48.00;;;;;;5075187;28;20443;-60
2022/03/25 02:40:36;;;;;;;26.40;25.10;;;19.30;48.10;;;;;;5075436;28;20450;-60
2022/03/25 02:43:03;;;;;;;26.37;25.17;;;19.30;48.10;;;;;;5075292;28;20460;-59
2022/03/25 02:45:30;;;;;;;26.97;25.70;;;19.30;48.50;;;;;;5075307;28;20828;-58
2022/03/25 02:47:57;;;;;;;26.30;25.20;;;19.30;48.10;;;;;;5074980;28;20450;-59
2022/03/25 02:50:25;;;;;;;26.93;25.63;;;19.30;48.00;;;;;;5075194;28;20955;-58
2022/03/25 02:52:52;;;;;;;26.80;25.50;;;19.30;48.00;;;;;;5075355;28;20495;-57
2022/03/25 02:55:19;;;;;;;27.17;25.97;;;19.20;48.00;;;;;;5075196;28;21019;-58
2022/03/25 02:57:47;;;;;;;26.80;25.60;;;19.20;48.00;;;;;;5074797;28;20824;-58
2022/03/25 03:00:14;;;;;;;26.43;25.23;;;19.30;48.00;;;;;;5075032;28;20447;-57
2022/03/25 03:02:40;;;;;;;28.43;27.13;;;19.20;48.00;;;;;;5074811;28;20471;-59
2022/03/25 03:05:08;;;;;;;27.23;26.03;;;19.30;48.00;;;;;;5074977;28;20824;-61
2022/03/25 03:07:35;;;;;;;25.30;24.20;;;19.20;47.90;;;;;;5074506;28;20810;-59
2022/03/25 03:10:03;;;;;;;26.93;25.73;;;19.20;48.00;;;;;;5074862;28;20504;-56
2022/03/25 03:12:30;;;;;;;26.90;25.60;;;19.20;47.90;;;;;;5074545;28;20483;-58
2022/03/25 03:14:58;;;;;;;27.97;26.77;;;19.20;48.00;;;;;;5074739;28;20540;-61
2022/03/25 03:17:25;;;;;;;26.70;25.50;;;19.20;48.00;;;;;;5074360;28;20812;-60
2022/03/25 03:19:52;;;;;;;26.03;24.87;;;19.20;48.10;;;;;;5074647;28;20447;-57
2022/03/25 03:22:19;;;;;;;27.53;26.33;;;19.10;48.00;;;;;;5074634;28;20467;-57
2022/03/25 03:24:45;;;;;;;27.77;26.27;;;19.10;48.00;;;;;;5074363;28;20444;-58
2022/03/25 03:27:12;;;;;;;27.50;26.20;;;19.10;48.10;;;;;;5074575;28;20952;-57
2022/03/25 03:29:39;;;;;;;25.93;24.77;;;19.00;48.20;;;;;;5074424;28;20443;-60
2022/03/25 03:32:09;;;;;;;26.00;24.80;;;19.00;48.30;;;;;;5074327;28;20486;-57
2022/03/25 03:34:36;;;;;;;28.13;26.80;;;19.10;48.40;;;;;;5074162;28;20996;-60
2022/03/25 03:37:03;;;;;;;27.20;26.00;;;19.10;48.30;;;;;;5074212;28;20450;-56
2022/03/25 03:39:30;;;;;;;27.20;26.00;;;19.00;48.30;;;;;;5074010;28;20513;-60
2022/03/25 03:41:57;;;;;;;27.40;26.30;;;19.00;48.40;;;;;;5074242;28;20455;-56
2022/03/25 03:44:24;;;;;;;27.97;26.77;;;19.10;48.40;;;;;;5074065;28;20447;-60
2022/03/25 03:46:50;;;;;;;28.40;27.00;;;19.10;48.30;;;;;;5074224;28;20443;-57
2022/03/25 03:49:18;;;;;;;28.00;26.80;;;19.10;48.40;;;;;;5074000;28;20440;-57
2022/03/25 03:51:46;;;;;;;27.10;25.90;;;19.00;48.50;;;;;;5073980;28;20842;-57
2022/03/25 03:54:13;;;;;;;28.40;27.20;;;19.10;48.60;;;;;;5074077;28;20447;-56
2022/03/25 03:56:40;;;;;;;29.30;28.00;;;19.10;48.70;;;;;;5073576;28;20454;-59
2022/03/25 03:59:07;;;;;;;31.10;29.60;;;19.10;48.70;;;;;;5073788;28;20485;-55
2022/03/25 04:01:33;;;;;;;29.10;27.90;;;19.10;48.80;;;;;;5073684;28;20444;-57
2022/03/25 04:04:00;;;;;;;29.97;28.67;;;19.10;48.80;;;;;;5073970;28;20448;-59
2022/03/25 04:06:28;;;;;;;28.50;27.20;;;19.10;48.60;;;;;;5073631;28;21118;-56
2022/03/25 04:08:56;;;;;;;29.17;27.83;;;19.10;48.60;;;;;;5073758;28;20530;-57
2022/03/25 04:11:22;;;;;;;29.30;27.90;;;19.10;48.50;;;;;;5073713;28;20991;-58
2022/03/25 04:13:49;;;;;;;30.30;28.93;;;19.10;48.50;;;;;;5073648;28;20475;-58
2022/03/25 04:16:16;;;;;;;29.60;28.40;;;19.10;48.60;;;;;;5073346;28;20792;-55
2022/03/25 04:18:44;;;;;;;30.33;29.03;;;19.00;48.60;;;;;;5073566;28;20443;-58
2022/03/25 04:21:11;;;;;;;30.43;29.13;;;19.10;48.60;;;;;;5073526;28;20531;-60
2022/03/25 04:23:39;;;;;;;29.30;27.97;;;19.10;48.60;;;;;;5073422;28;20459;-56
2022/03/25 04:26:06;;;;;;;29.93;28.60;;;19.00;48.50;;;;;;5072721;28;20451;-57
2022/03/25 04:28:33;;;;;;;28.93;27.47;;;19.00;48.70;;;;;;5073272;28;20451;-60
2022/03/25 04:31:00;;;;;;;28.90;27.60;;;19.00;48.70;;;;;;5073239;28;20448;-55
2022/03/25 04:33:27;;;;;;;29.77;28.50;;;18.90;48.70;;;;;;5073029;28;20473;-54
2022/03/25 04:35:53;;;;;;;28.13;26.93;;;18.90;48.80;;;;;;5073293;28;20891;-58
2022/03/25 04:38:20;;;;;;;31.00;29.63;;;18.90;48.80;;;;;;5072980;28;20454;-55
2022/03/25 04:40:49;;;;;;;29.73;28.50;;;18.90;48.90;;;;;;5073138;28;20439;-58
2022/03/25 04:43:15;;;;;;;29.77;28.57;;;18.90;48.90;;;;;;5072832;28;20827;-59
2022/03/25 04:45:42;;;;;;;30.93;29.57;;;18.90;48.90;;;;;;5073112;28;20447;-54
2022/03/25 04:48:10;;;;;;;30.00;28.60;;;18.90;48.90;;;;;;5072928;28;20516;-58
2022/03/25 04:50:37;;;;;;;28.47;27.27;;;18.90;48.70;;;;;;5072419;28;20451;-59
2022/03/25 04:53:04;;;;;;;29.70;28.30;;;18.90;48.70;;;;;;5072702;28;20486;-59
2022/03/25 04:55:31;;;;;;;29.63;28.17;;;18.90;48.70;;;;;;5072812;28;20452;-58
2022/03/25 04:57:59;;;;;;;27.70;26.50;;;18.90;48.70;;;;;;5072654;28;20450;-60
2022/03/25 05:00:26;;;;;;;29.00;27.70;;;18.90;48.80;;;;;;5072754;28;20948;-57
2022/03/25 05:02:53;;;;;;;33.00;31.50;;;18.80;48.80;;;;;;5072290;28;20471;-56
2022/03/25 05:05:20;;;;;;;31.43;29.97;;;18.80;48.80;;;;;;5072689;28;20440;-58
2022/03/25 05:07:50;;;;;;;32.40;31.00;;;18.70;48.90;;;;;;5072426;28;20443;-58
2022/03/25 05:10:17;;;;;;;29.90;28.57;;;18.70;49.10;;;;;;5072401;28;20982;-58
2022/03/25 05:12:45;;;;;;;31.03;29.63;;;18.70;49.20;;;;;;5072396;28;20996;-57
2022/03/25 05:15:13;;;;;;;32.23;30.73;;;18.60;49.10;;;;;;5071928;28;20444;-60
2022/03/25 05:17:45;;;;;;;30.20;28.90;;;18.60;49.20;;;;;;5072199;28;20455;-61
2022/03/25 05:20:12;;;;;;;31.13;29.63;;;18.60;49.30;;;;;;5072340;28;20517;-55
2022/03/25 05:22:39;;;;;;;29.37;28.00;;;18.60;49.30;;;;;;5072485;28;20849;-61
2022/03/25 05:25:07;;;;;;;32.23;30.63;;;18.60;49.40;;;;;;5071964;28;20455;-60
2022/03/25 05:27:43;;;;;;;33.53;31.47;;;18.80;52.90;;;;;;5072051;28;20451;-61
2022/03/25 05:30:11;;;;;;;34.60;32.20;;;18.90;58.20;;;;;;5072206;28;20928;-61
2022/03/25 05:32:41;;;;;;;34.53;32.23;;;18.90;65.00;;;;;;5071944;28;20536;-61
2022/03/25 05:35:09;;;;;;;35.60;32.63;;;18.90;72.60;;;;;;5071515;28;20455;-61
2022/03/25 05:37:37;;;;;;;34.00;31.60;;;19.00;91.50;;;;;;5071749;28;21014;-61
2022/03/25 05:40:05;;;;;;;34.30;31.33;;;19.00;99.90;;;;;;5071957;28;20444;-62
2022/03/25 05:42:32;;;;;;;36.10;32.97;;;18.90;99.90;;;;;;5071777;28;20463;-61
2022/03/25 05:44:58;;;;;;;33.63;31.00;;;19.00;99.90;;;;;;5071731;28;20478;-59
2022/03/25 05:47:25;;;;;;;33.40;30.83;;;19.00;99.90;;;;;;5071735;28;20773;-63
2022/03/25 05:49:53;;;;;;;32.93;30.10;;;18.90;99.90;;;;;;5066004;28;20452;-61
2022/03/25 05:52:20;;;;;;;33.07;30.50;;;18.80;99.90;;;;;;5070989;28;20487;-58
2022/03/25 05:54:47;;;;;;;33.13;30.80;;;18.80;99.90;;;;;;5071857;28;20451;-60
2022/03/25 05:57:14;;;;;;;33.87;31.40;;;18.70;99.90;;;;;;5071723;28;20458;-60
2022/03/25 05:59:40;;;;;;;34.30;31.90;;;18.70;99.80;;;;;;5071602;28;20820;-58
2022/03/25 06:02:08;;;;;;;35.37;32.97;;;18.70;98.30;;;;;;5070705;28;20471;-60
2022/03/25 06:04:35;;;;;;;34.50;31.90;;;18.70;97.30;;;;;;5071779;28;20538;-58
2022/03/25 06:07:03;;;;;;;33.47;31.37;;;18.70;96.30;;;;;;5071728;28;20439;-60
2022/03/25 06:09:30;;;;;;;33.30;30.90;;;18.70;95.40;;;;;;5071537;28;20493;-57
2022/03/25 06:11:57;;;;;;;31.60;30.00;;;18.80;94.10;;;;;;5071454;28;20483;-53
2022/03/25 06:14:24;;;;;;;32.77;30.53;;;18.80;93.20;;;;;;5071648;28;20444;-57
2022/03/25 06:16:51;;;;;;;32.13;30.00;;;18.80;92.50;;;;;;5071627;28;21003;-54
2022/03/25 06:19:18;;;;;;;34.30;31.63;;;18.80;91.70;;;;;;5071743;28;20450;-57
2022/03/25 06:21:45;;;;;;;34.20;32.13;;;18.80;90.80;;;;;;5071370;28;20452;-55
2022/03/25 06:24:13;;;;;;;31.60;29.77;;;18.80;90.00;;;;;;5071549;28;20724;-58
2022/03/25 06:26:40;;;;;;;32.27;30.37;;;18.80;88.30;;;;;;5071572;28;20443;-60
2022/03/25 06:29:08;;;;;;;33.80;31.73;;;18.70;87.20;;;;;;5071205;28;20443;-57
2022/03/25 06:31:34;;;;;;;34.63;32.43;;;18.80;85.70;;;;;;5071301;28;20856;-57
2022/03/25 06:34:01;;;;;;;35.43;32.43;;;18.70;84.40;;;;;;5071423;28;20443;-57
2022/03/25 06:36:28;;;;;;;32.27;30.57;;;18.70;83.20;;;;;;5071280;28;20475;-60
2022/03/25 06:38:55;;;;;;;31.90;30.20;;;18.70;82.00;;;;;;5071159;28;20466;-60
2022/03/25 06:41:23;;;;;;;32.33;30.33;;;18.70;81.20;;;;;;5071386;28;20933;-57
2022/03/25 06:43:50;;;;;;;31.30;29.40;;;18.70;80.10;;;;;;5071485;28;20464;-58
2022/03/25 06:46:18;;;;;;;30.17;28.37;;;18.70;79.00;;;;;;5071295;28;20928;-56
2022/03/25 06:48:45;;;;;;;30.43;28.23;;;18.70;78.30;;;;;;5071007;28;20929;-59
2022/03/25 06:51:12;;;;;;;32.47;30.37;;;18.70;77.20;;;;;;5071155;28;20446;-57
2022/03/25 06:53:40;;;;;;;31.23;29.50;;;18.80;75.90;;;;;;5071140;28;20490;-59
2022/03/25 06:56:07;;;;;;;30.80;29.07;;;18.70;75.20;;;;;;5071233;28;20450;-54
2022/03/25 06:58:37;;;;;;;31.93;29.93;;;18.80;74.50;;;;;;5070954;28;20455;-55
2022/03/25 07:01:05;;;;;;;32.53;30.70;;;18.80;73.10;;;;;;5071218;28;20451;-56
2022/03/25 07:03:33;;;;;;;31.00;29.17;;;18.90;72.20;;;;;;5070898;28;20970;-59
2022/03/25 07:06:01;;;;;;;30.40;28.80;;;18.80;71.40;;;;;;5071092;28;20450;-58
2022/03/25 07:08:29;;;;;;;30.87;29.30;;;18.80;70.90;;;;;;5070810;28;20447;-57
2022/03/25 07:10:59;;;;;;;30.67;29.00;;;18.80;70.50;;;;;;5071040;28;20929;-56
2022/03/25 07:13:26;;;;;;;30.70;28.93;;;18.80;70.00;;;;;;5071741;28;20487;-59
2022/03/25 07:15:54;;;;;;;31.00;29.27;;;18.80;69.40;;;;;;5074746;28;20443;-54
2022/03/25 07:18:21;;;;;;;28.13;26.73;;;18.80;69.10;;;;;;5074468;28;20820;-58
2022/03/25 07:20:48;;;;;;;29.03;27.53;;;18.80;68.80;;;;;;5074642;28;20443;-58
2022/03/25 07:23:15;;;;;;;28.73;27.23;;;18.80;68.00;;;;;;5074490;28;20478;-58
2022/03/25 07:25:41;;;;;;;29.23;27.73;;;18.80;67.60;;;;;;5074577;28;20446;-59
2022/03/25 07:28:08;;;;;;;28.63;27.07;;;18.80;67.10;;;;;;5074458;28;20452;-58
2022/03/25 07:30:37;;;;;;;31.10;29.40;;;18.90;66.80;;;;;;5074308;28;20929;-58
2022/03/25 07:33:05;;;;;;;28.97;27.43;;;18.80;66.40;;;;;;5074450;28;20482;-57
2022/03/25 07:35:32;;;;;;;29.60;27.90;;;18.80;66.10;;;;;;5074341;28;20968;-60
2022/03/25 07:37:58;;;;;;;29.13;27.73;;;18.80;65.70;;;;;;5074296;28;20450;-57
2022/03/25 07:40:25;;;;;;;28.97;27.40;;;18.80;65.40;;;;;;5074282;28;20450;-58
2022/03/25 07:42:52;;;;;;;27.50;26.13;;;18.80;65.10;;;;;;5074252;28;20463;-57
2022/03/25 07:45:19;;;;;;;31.37;29.73;;;18.80;64.80;;;;;;5074309;28;20808;-59
2022/03/25 07:47:47;;;;;;;29.23;27.73;;;18.80;64.40;;;;;;5073907;28;20444;-61
2022/03/25 07:50:17;;;;;;;28.37;26.90;;;18.80;64.00;;;;;;5074067;28;20447;-61
2022/03/25 07:52:44;;;;;;;28.53;27.10;;;18.80;63.70;;;;;;5074102;28;20534;-60
2022/03/25 07:55:11;;;;;;;27.53;25.93;;;18.90;63.10;;;;;;5074069;28;20443;-58
2022/03/25 07:57:38;;;;;;;25.87;24.70;;;18.90;62.40;;;;;;5073829;28;20439;-59
2022/03/25 08:00:11;;;;;;;29.73;27.90;;;18.90;62.30;;;;;;5074006;28;20446;-56
2022/03/25 08:02:38;;;;;;;29.33;27.60;;;19.00;61.90;;;;;;5097464;22;20483;-54
2022/03/25 08:05:06;;;;;;;28.13;26.73;;;19.00;61.30;;;;;;5073646;28;20440;-57
2022/03/25 08:07:41;;;;;;;29.53;28.13;;;19.10;60.90;;;;;;5073622;28;20450;-59
2022/03/25 08:10:08;;;;;;;27.93;26.43;;;19.10;60.50;;;;;;5073884;28;20449;-55
2022/03/25 08:12:36;;;;;;;29.13;27.70;;;19.10;60.10;;;;;;5073632;28;20487;-60
2022/03/25 08:15:05;;;;;;;28.70;27.40;;;19.20;59.80;;;;;;5073718;28;20447;-60
2022/03/25 08:17:32;;;;;;;30.83;29.43;;;19.20;59.50;;;;;;5073550;28;20440;-59
2022/03/25 08:19:59;;;;;;;29.47;28.27;;;19.20;59.20;;;;;;5073475;28;20870;-59
2022/03/25 08:22:26;;;;;;;29.17;27.77;;;19.30;58.90;;;;;;5073424;28;20467;-58
2022/03/25 08:27:52;;;;;;;27.90;26.60;;;19.40;58.30;;;;;;5073404;28;20422;-62
2022/03/25 08:30:20;;;;;;;28.60;27.03;;;19.50;57.90;;;;;;5073497;28;20447;-62
2022/03/25 08:32:47;;;;;;;29.33;28.03;;;19.50;57.50;;;;;;5073242;28;20940;-61
2022/03/25 08:35:14;;;;;;;30.03;28.53;;;19.60;57.30;;;;;;5073269;28;20443;-61
2022/03/25 08:37:40;;;;;;;27.73;26.43;;;19.60;57.10;;;;;;5073020;28;20455;-56
2022/03/25 08:40:10;;;;;;;28.97;27.57;;;19.60;56.80;;;;;;5073089;28;20933;-58
2022/03/25 08:42:37;;;;;;;29.10;27.60;;;19.60;56.70;;;;;;5073038;28;20451;-52
2022/03/25 08:45:04;;;;;;;29.00;27.60;;;19.60;56.40;;;;;;5073138;28;20451;-58
2022/03/25 08:47:31;;;;;;;28.00;26.70;;;19.70;56.20;;;;;;5072823;28;20952;-52
2022/03/25 08:49:58;;;;;;;30.00;28.70;;;19.70;55.90;;;;;;5072826;28;20451;-57
2022/03/25 08:52:25;;;;;;;28.17;26.77;;;19.70;55.70;;;;;;5072838;28;20467;-55
2022/03/25 08:54:52;;;;;;;28.80;27.50;;;19.70;55.60;;;;;;5072817;28;20812;-57
2022/03/25 08:57:20;;;;;;;29.17;27.70;;;19.70;55.40;;;;;;5072687;28;20499;-56
2022/03/25 08:59:48;;;;;;;29.43;27.93;;;19.70;55.30;;;;;;5072745;28;20802;-51
2022/03/25 09:02:15;;;;;;;29.90;28.50;;;19.80;55.20;;;;;;5072470;28;20475;-56
2022/03/25 09:04:42;;;;;;;29.10;27.90;;;19.80;55.00;;;;;;5072626;28;20443;-51
2022/03/25 09:07:08;;;;;;;29.10;27.70;;;19.80;54.90;;;;;;5072592;28;20448;-59
2022/03/25 09:09:36;;;;;;;29.40;27.90;;;19.80;54.70;;;;;;5072379;28;20446;-54
2022/03/25 09:12:03;;;;;;;29.70;28.20;;;19.80;54.50;;;;;;5072519;28;20440;-56
2022/03/25 09:14:31;;;;;;;29.93;28.63;;;19.90;54.90;;;;;;5072455;28;20528;-52
2022/03/25 09:16:59;;;;;;;31.13;29.63;;;19.90;54.20;;;;;;5072492;28;20827;-52
2022/03/25 09:19:26;;;;;;;32.23;30.70;;;19.90;54.00;;;;;;5072229;28;20455;-54
2022/03/25 09:21:52;;;;;;;28.50;27.00;;;19.90;53.90;;;;;;5072239;28;20807;-53
2022/03/25 09:24:19;;;;;;;29.23;27.83;;;19.90;53.70;;;;;;5072300;28;20441;-52
2022/03/25 09:26:46;;;;;;;29.53;28.10;;;19.90;53.60;;;;;;5072387;28;20447;-57
2022/03/25 09:29:12;;;;;;;28.10;26.90;;;20.00;53.50;;;;;;5071942;28;20443;-58
2022/03/25 09:31:42;;;;;;;26.93;25.73;;;20.00;53.30;;;;;;5072154;28;20937;-55
2022/03/25 09:36:54;;;;;;;31.23;29.77;;;20.00;53.00;;;;;;5072107;28;20553;-58
2022/03/25 09:39:20;;;;;;;29.07;27.77;;;20.10;52.80;;;;;;5071759;28;20454;-54
2022/03/25 09:41:47;;;;;;;32.10;30.60;;;20.10;52.80;;;;;;5072076;28;20455;-60
2022/03/25 09:44:16;;;;;;;31.53;30.20;;;20.10;53.10;;;;;;5072135;28;20448;-60
2022/03/25 09:46:45;;;;;;;32.03;30.63;;;20.20;52.90;;;;;;5071889;28;20447;-61
2022/03/25 09:49:13;;;;;;;35.47;33.77;;;20.20;52.30;;;;;;5071727;28;20453;-61
2022/03/25 09:51:41;;;;;;;32.10;30.70;;;20.20;52.10;;;;;;5071787;28;20493;-60
2022/03/25 09:54:09;;;;;;;34.30;32.80;;;20.20;51.80;;;;;;5071703;28;20556;-58
2022/03/25 09:56:36;;;;;;;30.43;28.90;;;20.30;51.70;;;;;;5071875;28;20439;-60
2022/03/25 09:59:06;;;;;;;30.40;29.20;;;20.30;51.30;;;;;;5071573;28;20451;-60
2022/03/25 10:01:33;;;;;;;32.67;31.37;;;20.30;51.30;;;;;;5071681;28;20448;-59
2022/03/25 10:04:01;;;;;;;32.40;31.00;;;20.40;51.30;;;;;;5071595;28;20474;-60
2022/03/25 10:06:28;;;;;;;31.33;30.03;;;20.40;51.10;;;;;;5071714;28;20470;-60
2022/03/25 10:08:59;;;;;;;31.10;29.83;;;20.40;51.00;;;;;;5071400;28;20448;-59
2022/03/25 10:11:27;;;;;;;31.60;30.20;;;20.40;50.90;;;;;;5071730;28;20451;-58
2022/03/25 10:14:15;;;;;;;30.30;28.80;;;20.50;50.80;;;;;;5071423;28;20497;-57
2022/03/25 10:16:43;;;;;;;30.17;28.97;;;20.60;50.70;;;;;;5071525;28;20470;-58
2022/03/25 10:19:11;;;;;;;29.90;28.70;;;20.60;50.60;;;;;;5071452;28;20455;-53
2022/03/25 10:21:52;;;;;;;30.00;28.50;;;20.70;50.50;;;;;;5071582;28;20447;-52
2022/03/25 10:24:35;;;;;;;29.47;28.20;;;20.70;50.50;;;;;;5071600;28;20823;-55
2022/03/25 10:27:05;;;;;;;29.70;28.53;;;20.80;50.40;;;;;;5071542;28;20941;-55
2022/03/25 10:29:32;;;;;;;30.70;29.40;;;20.80;50.30;;;;;;5071194;28;20444;-60
2022/03/25 10:32:10;;;;;;;33.73;32.33;;;20.90;50.20;;;;;;5071326;28;20491;-57
2022/03/25 10:34:40;;;;;;;30.10;28.90;;;21.00;50.10;;;;;;5071340;28;20482;-58
2022/03/25 10:37:09;;;;;;;31.67;30.47;;;21.00;49.80;;;;;;5071662;28;20454;-56
2022/03/25 10:39:36;;;;;;;31.87;30.47;;;21.10;49.70;;;;;;5071196;28;20451;-54
2022/03/25 10:42:05;;;;;;;30.33;29.03;;;21.10;49.50;;;;;;5071180;28;20446;-59
2022/03/25 10:44:36;;;;;;;32.23;30.93;;;21.20;49.40;;;;;;5071365;28;20801;-54
2022/03/25 10:47:23;;;;;;;32.67;31.30;;;21.40;49.30;;;;;;5071372;28;20447;-54
2022/03/25 10:49:52;;;;;;;30.90;29.60;;;21.50;49.10;;;;;;5074398;28;20932;-55
2022/03/25 10:52:30;;;;;;;31.60;30.30;;;21.60;48.90;;;;;;5075174;28;20471;-59
2022/03/25 10:55:17;;;;;;;31.63;30.23;;;21.70;48.60;;;;;;5075057;28;21011;-59
2022/03/25 10:57:52;;;;;;;31.83;30.53;;;21.80;48.30;;;;;;5074981;28;20944;-56
2022/03/25 11:00:19;;;;;;;33.40;32.00;;;21.80;48.00;;;;;;5054852;28;20455;-58
2022/03/25 11:02:46;;;;;;;34.13;32.63;;;21.90;48.00;;;;;;5054061;28;20472;-59
2022/03/25 11:05:15;;;;;;;32.67;31.27;;;22.00;47.90;;;;;;5055031;28;20441;-57
2022/03/25 11:07:44;;;;;;;32.97;31.77;;;22.10;47.70;;;;;;5054653;28;20448;-57
2022/03/25 11:10:13;;;;;;;34.67;33.17;;;22.10;47.60;;;;;;5054545;28;20484;-56
2022/03/25 11:12:42;;;;;;;32.80;31.40;;;22.20;47.80;;;;;;5054902;28;20559;-56
2022/03/25 11:15:11;;;;;;;34.57;32.87;;;22.20;48.50;;;;;;5054712;28;21030;-56
2022/03/25 11:17:39;;;;;;;35.93;34.33;;;22.30;49.20;;;;;;5054637;28;20444;-55
2022/03/25 11:20:08;;;;;;;33.10;31.80;;;22.40;49.60;;;;;;5036000;28;20449;-54
2022/03/25 11:22:40;;;;;;;33.83;32.50;;;22.40;49.80;;;;;;5034599;28;20472;-55
2022/03/25 11:25:10;;;;;;;31.88;30.48;;;22.50;49.80;;;;;;5034074;28;20433;-59
2022/03/25 11:27:39;;;;;;;33.50;32.20;;;22.70;49.80;;;;;;5035496;28;20198;-59
2022/03/25 11:30:10;;;;;;;30.50;29.10;;;22.80;49.20;;;;;;5038550;28;20439;-57
2022/03/25 11:32:48;;;;;;;34.47;32.83;;;23.10;49.10;;;;;;5050588;28;20630;-58
2022/03/25 11:35:20;;;;;;;33.60;32.20;;;23.30;49.30;;;;;;5054516;28;20490;-56
2022/03/25 11:38:09;;;;;;;34.00;32.60;;;23.40;48.40;;;;;;5054371;28;20797;-57
2022/03/25 11:40:36;;;;;;;34.33;32.83;;;23.60;48.00;;;;;;5054197;28;20949;-54
2022/03/25 11:43:13;;;;;;;34.13;32.73;;;24.00;47.50;;;;;;5054081;28;20471;-56
2022/03/25 11:45:40;;;;;;;35.53;34.03;;;25.00;46.30;;;;;;5054257;28;20451;-55
2022/03/25 11:48:33;;;;;;;37.60;36.00;;;26.30;44.00;;;;;;5054078;28;20440;-55
2022/03/25 11:51:01;;;;;;;35.50;34.00;;;27.60;41.20;;;;;;5054139;28;20925;-55
2022/03/25 11:53:32;;;;;;;36.40;34.80;;;28.30;39.20;;;;;;5054101;28;20991;-58
2022/03/25 11:56:02;;;;;;;38.00;36.50;;;28.90;37.70;;;;;;5054046;28;20459;-56
2022/03/25 11:58:30;;;;;;;35.47;34.03;;;29.50;36.40;;;;;;5053724;28;20494;-58
2022/03/25 12:01:03;;;;;;;36.93;35.17;;;29.90;35.40;;;;;;5052645;28;20444;-57
2022/03/25 12:03:43;;;;;;;35.20;33.80;;;30.50;34.50;;;;;;5053667;28;20475;-56
2022/03/25 12:06:11;;;;;;;35.77;34.43;;;31.00;33.40;;;;;;5053847;28;20448;-56
2022/03/25 12:08:39;;;;;;;35.17;33.67;;;30.40;33.50;;;;;;5053418;28;20444;-55
2022/03/25 12:11:08;;;;;;;34.90;33.50;;;29.60;33.50;;;;;;5053683;28;20949;-55
2022/03/25 12:14:06;;;;;;;37.77;36.27;;;29.20;34.20;;;;;;5053719;28;20464;-52
2022/03/25 12:16:55;;;;;;;37.63;36.13;;;29.90;34.40;;;;;;5053770;28;20447;-57
2022/03/25 12:19:50;;;;;;;35.03;33.63;;;30.90;33.00;;;;;;5053419;28;20482;-54
2022/03/25 12:22:44;;;;;;;38.23;36.73;;;31.60;32.20;;;;;;5053591;28;20460;-56
2022/03/25 12:25:21;;;;;;;35.23;33.83;;;32.30;31.10;;;;;;5053664;28;20424;-56
2022/03/25 12:27:52;;;;;;;38.40;36.90;;;32.90;30.50;;;;;;5053389;28;20936;-57
2022/03/25 12:30:18;;;;;;;35.73;34.33;;;33.20;30.00;;;;;;5053318;28;20454;-52
2022/03/25 12:32:47;;;;;;;35.17;33.87;;;33.60;29.60;;;;;;5053393;28;20555;-52
2022/03/25 12:35:16;;;;;;;32.83;31.53;;;34.00;29.10;;;;;;5053220;28;20855;-60
2022/03/25 12:38:02;;;;;;;36.00;34.60;;;34.30;28.70;;;;;;5053408;28;20555;-60
2022/03/25 12:40:32;;;;;;;33.93;32.53;;;34.50;28.50;;;;;;5053317;28;20458;-57